sensor_id;sensor_type;location;lat;lon;timestamp;P1;durP1;ratioP1;P2;durP2;ratioP2
75038;SDS011;63609;49.992;14.512;2023-02-26T00:01:26;11.05;;;4.70;;
75038;SDS011;63609;49.992;14.512;2023-02-26T00:03:56;9.88;;;4.15;;
75038;SDS011;63609;49.992;14.512;2023-02-26T00:06:25;8.75;;;4.25;;
75038;SDS011;63609;49.992;14.512;2023-02-26T00:08:54;5.78;;;3.22;;
75038;SDS011;63609;49.992;14.512;2023-02-26T00:11:21;6.93;;;3.63;;
75038;SDS011;63609;49.992;14.512;2023-02-26T00:13:52;9.05;;;4.68;;
75038;SDS011;63609;49.992;14.512;2023-02-26T00:16:27;7.60;;;3.95;;
75038;SDS011;63609;49.992;14.512;2023-02-26T00:19:01;9.68;;;4.78;;
75038;SDS011;63609;49.992;14.512;2023-02-26T00:21:33;5.90;;;3.38;;
75038;SDS011;63609;49.992;14.512;2023-02-26T00:24:01;8.48;;;3.97;;
75038;SDS011;63609;49.992;14.512;2023-02-26T00:28:57;9.25;;;3.83;;
75038;SDS011;63609;49.992;14.512;2023-02-26T00:31:24;9.48;;;4.07;;
75038;SDS011;63609;49.992;14.512;2023-02-26T00:33:52;9.65;;;5.15;;
75038;SDS011;63609;49.992;14.512;2023-02-26T00:41:54;6.88;;;3.42;;
75038;SDS011;63609;49.992;14.512;2023-02-26T00:44:21;8.70;;;4.18;;
75038;SDS011;63609;49.992;14.512;2023-02-26T00:52:04;7.82;;;3.33;;
75038;SDS011;63609;49.992;14.512;2023-02-26T00:54:36;7.40;;;4.07;;
75038;SDS011;63609;49.992;14.512;2023-02-26T00:57:02;7.10;;;2.97;;
75038;SDS011;63609;49.992;14.512;2023-02-26T00:59:31;5.50;;;3.08;;
75038;SDS011;63609;49.992;14.512;2023-02-26T01:02:00;4.57;;;2.67;;
75038;SDS011;63609;49.992;14.512;2023-02-26T01:06:55;7.82;;;3.28;;
75038;SDS011;63609;49.992;14.512;2023-02-26T01:09:25;6.63;;;3.75;;
75038;SDS011;63609;49.992;14.512;2023-02-26T01:11:56;6.88;;;3.35;;
75038;SDS011;63609;49.992;14.512;2023-02-26T01:14:29;6.47;;;3.75;;
75038;SDS011;63609;49.992;14.512;2023-02-26T01:17:04;5.13;;;3.08;;
75038;SDS011;63609;49.992;14.512;2023-02-26T01:19:54;5.82;;;3.22;;
75038;SDS011;63609;49.992;14.512;2023-02-26T01:22:45;5.97;;;2.88;;
75038;SDS011;63609;49.992;14.512;2023-02-26T01:25:23;6.63;;;3.83;;
75038;SDS011;63609;49.992;14.512;2023-02-26T01:30:23;4.60;;;2.40;;
75038;SDS011;63609;49.992;14.512;2023-02-26T01:33:13;6.25;;;3.17;;
75038;SDS011;63609;49.992;14.512;2023-02-26T01:35:41;4.78;;;2.92;;
75038;SDS011;63609;49.992;14.512;2023-02-26T01:43:43;4.90;;;2.80;;
75038;SDS011;63609;49.992;14.512;2023-02-26T01:49:00;3.55;;;2.22;;
75038;SDS011;63609;49.992;14.512;2023-02-26T01:51:40;6.20;;;3.20;;
75038;SDS011;63609;49.992;14.512;2023-02-26T01:54:23;5.72;;;2.92;;
75038;SDS011;63609;49.992;14.512;2023-02-26T01:56:58;4.97;;;2.95;;
75038;SDS011;63609;49.992;14.512;2023-02-26T01:59:29;5.57;;;2.55;;
75038;SDS011;63609;49.992;14.512;2023-02-26T02:02:03;5.43;;;2.28;;
75038;SDS011;63609;49.992;14.512;2023-02-26T02:04:33;6.07;;;3.33;;
75038;SDS011;63609;49.992;14.512;2023-02-26T02:07:00;5.22;;;2.95;;
75038;SDS011;63609;49.992;14.512;2023-02-26T02:09:28;5.28;;;3.10;;
75038;SDS011;63609;49.992;14.512;2023-02-26T02:23:31;3.95;;;2.17;;
75038;SDS011;63609;49.992;14.512;2023-02-26T02:31:56;5.07;;;2.13;;
75038;SDS011;63609;49.992;14.512;2023-02-26T02:37:29;4.93;;;2.03;;
75038;SDS011;63609;49.992;14.512;2023-02-26T02:40:02;7.47;;;1.92;;
75038;SDS011;63609;49.992;14.512;2023-02-26T02:45:25;3.60;;;1.75;;
75038;SDS011;63609;49.992;14.512;2023-02-26T02:48:08;3.63;;;1.70;;
75038;SDS011;63609;49.992;14.512;2023-02-26T02:50:46;3.92;;;1.83;;
75038;SDS011;63609;49.992;14.512;2023-02-26T02:53:20;4.15;;;1.25;;
75038;SDS011;63609;49.992;14.512;2023-02-26T02:55:54;3.33;;;1.65;;
75038;SDS011;63609;49.992;14.512;2023-02-26T02:58:25;3.60;;;1.42;;
75038;SDS011;63609;49.992;14.512;2023-02-26T03:01:02;3.53;;;1.85;;
75038;SDS011;63609;49.992;14.512;2023-02-26T03:06:29;3.22;;;1.65;;
75038;SDS011;63609;49.992;14.512;2023-02-26T03:08:56;3.38;;;1.83;;
75038;SDS011;63609;49.992;14.512;2023-02-26T03:11:26;5.55;;;1.75;;
75038;SDS011;63609;49.992;14.512;2023-02-26T03:13:52;4.53;;;1.98;;
75038;SDS011;63609;49.992;14.512;2023-02-26T03:21:30;3.47;;;1.85;;
75038;SDS011;63609;49.992;14.512;2023-02-26T03:24:21;3.05;;;1.50;;
75038;SDS011;63609;49.992;14.512;2023-02-26T03:29:46;3.47;;;1.65;;
75038;SDS011;63609;49.992;14.512;2023-02-26T03:32:16;3.58;;;1.58;;
75038;SDS011;63609;49.992;14.512;2023-02-26T03:34:51;4.20;;;1.90;;
75038;SDS011;63609;49.992;14.512;2023-02-26T03:37:32;2.92;;;1.35;;
75038;SDS011;63609;49.992;14.512;2023-02-26T03:40:08;3.63;;;1.60;;
75038;SDS011;63609;49.992;14.512;2023-02-26T03:45:32;4.47;;;2.10;;
75038;SDS011;63609;49.992;14.512;2023-02-26T03:48:02;5.65;;;2.17;;
75038;SDS011;63609;49.992;14.512;2023-02-26T03:50:33;5.18;;;1.63;;
75038;SDS011;63609;49.992;14.512;2023-02-26T03:53:37;3.40;;;1.60;;
75038;SDS011;63609;49.992;14.512;2023-02-26T03:59:23;4.47;;;1.50;;
75038;SDS011;63609;49.992;14.512;2023-02-26T04:02:09;4.47;;;1.52;;
75038;SDS011;63609;49.992;14.512;2023-02-26T04:07:45;2.53;;;1.20;;
75038;SDS011;63609;49.992;14.512;2023-02-26T04:10:14;5.15;;;1.83;;
75038;SDS011;63609;49.992;14.512;2023-02-26T04:12:45;3.67;;;1.73;;
75038;SDS011;63609;49.992;14.512;2023-02-26T04:15:11;2.97;;;1.55;;
75038;SDS011;63609;49.992;14.512;2023-02-26T04:17:39;2.83;;;1.40;;
75038;SDS011;63609;49.992;14.512;2023-02-26T04:20:07;3.30;;;2.00;;
75038;SDS011;63609;49.992;14.512;2023-02-26T04:22:40;3.78;;;1.40;;
75038;SDS011;63609;49.992;14.512;2023-02-26T04:25:06;4.15;;;1.70;;
75038;SDS011;63609;49.992;14.512;2023-02-26T04:27:34;2.83;;;1.08;;
75038;SDS011;63609;49.992;14.512;2023-02-26T04:30:01;3.90;;;1.52;;
75038;SDS011;63609;49.992;14.512;2023-02-26T04:32:29;2.55;;;1.48;;
75038;SDS011;63609;49.992;14.512;2023-02-26T04:37:23;2.15;;;1.15;;
75038;SDS011;63609;49.992;14.512;2023-02-26T04:39:50;2.55;;;1.20;;
75038;SDS011;63609;49.992;14.512;2023-02-26T04:44:44;3.92;;;1.35;;
75038;SDS011;63609;49.992;14.512;2023-02-26T04:47:12;2.10;;;1.23;;
75038;SDS011;63609;49.992;14.512;2023-02-26T04:49:40;3.55;;;1.50;;
75038;SDS011;63609;49.992;14.512;2023-02-26T04:52:06;2.80;;;1.10;;
75038;SDS011;63609;49.992;14.512;2023-02-26T04:54:34;3.75;;;1.85;;
75038;SDS011;63609;49.992;14.512;2023-02-26T04:57:01;6.32;;;2.88;;
75038;SDS011;63609;49.992;14.512;2023-02-26T04:59:30;3.47;;;1.83;;
75038;SDS011;63609;49.992;14.512;2023-02-26T05:04:33;2.78;;;1.83;;
75038;SDS011;63609;49.992;14.512;2023-02-26T05:07:04;4.07;;;3.15;;
75038;SDS011;63609;49.992;14.512;2023-02-26T05:09:31;3.22;;;1.83;;
75038;SDS011;63609;49.992;14.512;2023-02-26T05:11:58;3.40;;;1.60;;
75038;SDS011;63609;49.992;14.512;2023-02-26T05:17:02;2.15;;;1.10;;
75038;SDS011;63609;49.992;14.512;2023-02-26T05:19:29;2.60;;;1.27;;
75038;SDS011;63609;49.992;14.512;2023-02-26T05:21:58;2.25;;;1.20;;
75038;SDS011;63609;49.992;14.512;2023-02-26T05:24:25;1.92;;;1.13;;
75038;SDS011;63609;49.992;14.512;2023-02-26T05:26:53;3.35;;;1.00;;
75038;SDS011;63609;49.992;14.512;2023-02-26T05:29:21;1.77;;;1.10;;
75038;SDS011;63609;49.992;14.512;2023-02-26T05:31:49;2.50;;;1.48;;
75038;SDS011;63609;49.992;14.512;2023-02-26T05:34:19;1.83;;;1.00;;
75038;SDS011;63609;49.992;14.512;2023-02-26T05:39:27;2.13;;;0.93;;
75038;SDS011;63609;49.992;14.512;2023-02-26T05:41:54;3.25;;;0.90;;
75038;SDS011;63609;49.992;14.512;2023-02-26T05:44:25;3.53;;;1.02;;
75038;SDS011;63609;49.992;14.512;2023-02-26T05:46:55;2.30;;;1.30;;
75038;SDS011;63609;49.992;14.512;2023-02-26T05:49:54;2.55;;;1.30;;
75038;SDS011;63609;49.992;14.512;2023-02-26T05:52:24;5.25;;;2.03;;
75038;SDS011;63609;49.992;14.512;2023-02-26T05:54:52;21.05;;;7.40;;
75038;SDS011;63609;49.992;14.512;2023-02-26T05:57:22;12.23;;;5.50;;
75038;SDS011;63609;49.992;14.512;2023-02-26T05:59:50;7.22;;;3.33;;
75038;SDS011;63609;49.992;14.512;2023-02-26T06:02:17;6.18;;;2.83;;
75038;SDS011;63609;49.992;14.512;2023-02-26T06:04:45;7.90;;;2.90;;
75038;SDS011;63609;49.992;14.512;2023-02-26T06:07:13;6.90;;;2.90;;
75038;SDS011;63609;49.992;14.512;2023-02-26T06:12:08;6.38;;;3.17;;
75038;SDS011;63609;49.992;14.512;2023-02-26T06:14:35;6.97;;;2.88;;
75038;SDS011;63609;49.992;14.512;2023-02-26T06:17:03;6.78;;;2.53;;
75038;SDS011;63609;49.992;14.512;2023-02-26T06:19:32;8.13;;;2.67;;
75038;SDS011;63609;49.992;14.512;2023-02-26T06:25:35;7.78;;;2.90;;
75038;SDS011;63609;49.992;14.512;2023-02-26T06:29:11;3.30;;;1.40;;
75038;SDS011;63609;49.992;14.512;2023-02-26T06:31:39;6.20;;;2.15;;
75038;SDS011;63609;49.992;14.512;2023-02-26T06:34:07;5.97;;;2.72;;
75038;SDS011;63609;49.992;14.512;2023-02-26T06:36:38;6.18;;;1.98;;
75038;SDS011;63609;49.992;14.512;2023-02-26T06:39:22;2.80;;;1.42;;
75038;SDS011;63609;49.992;14.512;2023-02-26T06:41:50;6.93;;;3.30;;
75038;SDS011;63609;49.992;14.512;2023-02-26T06:44:17;7.80;;;2.63;;
75038;SDS011;63609;49.992;14.512;2023-02-26T06:46:47;4.22;;;2.17;;
75038;SDS011;63609;49.992;14.512;2023-02-26T06:49:14;3.85;;;1.35;;
75038;SDS011;63609;49.992;14.512;2023-02-26T06:54:10;2.50;;;1.42;;
75038;SDS011;63609;49.992;14.512;2023-02-26T06:56:37;4.40;;;2.17;;
75038;SDS011;63609;49.992;14.512;2023-02-26T06:59:05;2.40;;;1.17;;
75038;SDS011;63609;49.992;14.512;2023-02-26T07:01:36;5.97;;;2.00;;
75038;SDS011;63609;49.992;14.512;2023-02-26T07:04:03;6.47;;;2.50;;
75038;SDS011;63609;49.992;14.512;2023-02-26T07:06:33;4.80;;;1.83;;
75038;SDS011;63609;49.992;14.512;2023-02-26T07:09:01;6.47;;;1.67;;
75038;SDS011;63609;49.992;14.512;2023-02-26T07:11:31;3.42;;;1.67;;
75038;SDS011;63609;49.992;14.512;2023-02-26T07:14:14;5.07;;;1.95;;
75038;SDS011;63609;49.992;14.512;2023-02-26T07:17:39;2.88;;;1.40;;
75038;SDS011;63609;49.992;14.512;2023-02-26T07:20:32;4.28;;;1.70;;
75038;SDS011;63609;49.992;14.512;2023-02-26T07:23:10;4.70;;;1.88;;
75038;SDS011;63609;49.992;14.512;2023-02-26T07:25:40;5.60;;;2.22;;
75038;SDS011;63609;49.992;14.512;2023-02-26T07:28:09;4.15;;;2.20;;
75038;SDS011;63609;49.992;14.512;2023-02-26T07:30:45;4.13;;;2.40;;
75038;SDS011;63609;49.992;14.512;2023-02-26T07:36:09;7.03;;;3.20;;
75038;SDS011;63609;49.992;14.512;2023-02-26T07:38:54;4.35;;;1.98;;
75038;SDS011;63609;49.992;14.512;2023-02-26T07:41:22;6.07;;;2.90;;
75038;SDS011;63609;49.992;14.512;2023-02-26T07:43:49;5.82;;;2.70;;
75038;SDS011;63609;49.992;14.512;2023-02-26T07:46:17;4.75;;;2.05;;
75038;SDS011;63609;49.992;14.512;2023-02-26T07:48:45;4.15;;;1.90;;
75038;SDS011;63609;49.992;14.512;2023-02-26T07:51:14;4.32;;;1.90;;
75038;SDS011;63609;49.992;14.512;2023-02-26T07:53:47;5.47;;;2.00;;
75038;SDS011;63609;49.992;14.512;2023-02-26T07:56:14;2.95;;;1.23;;
75038;SDS011;63609;49.992;14.512;2023-02-26T08:01:17;7.53;;;3.67;;
75038;SDS011;63609;49.992;14.512;2023-02-26T08:03:46;3.50;;;1.27;;
75038;SDS011;63609;49.992;14.512;2023-02-26T08:06:13;4.30;;;2.08;;
75038;SDS011;63609;49.992;14.512;2023-02-26T08:11:07;2.25;;;1.40;;
75038;SDS011;63609;49.992;14.512;2023-02-26T08:13:34;2.88;;;1.48;;
75038;SDS011;63609;49.992;14.512;2023-02-26T08:18:48;2.13;;;1.13;;
75038;SDS011;63609;49.992;14.512;2023-02-26T08:21:48;4.18;;;2.05;;
75038;SDS011;63609;49.992;14.512;2023-02-26T08:24:27;3.20;;;1.65;;
75038;SDS011;63609;49.992;14.512;2023-02-26T08:27:12;3.13;;;1.60;;
75038;SDS011;63609;49.992;14.512;2023-02-26T08:32:34;3.42;;;1.02;;
75038;SDS011;63609;49.992;14.512;2023-02-26T08:37:28;4.63;;;1.30;;
75038;SDS011;63609;49.992;14.512;2023-02-26T08:39:55;5.32;;;1.65;;
75038;SDS011;63609;49.992;14.512;2023-02-26T08:42:22;4.47;;;1.95;;
75038;SDS011;63609;49.992;14.512;2023-02-26T08:44:49;7.00;;;1.50;;
75038;SDS011;63609;49.992;14.512;2023-02-26T08:47:17;4.93;;;1.80;;
75038;SDS011;63609;49.992;14.512;2023-02-26T08:49:54;6.53;;;2.92;;
75038;SDS011;63609;49.992;14.512;2023-02-26T08:52:22;4.35;;;2.33;;
75038;SDS011;63609;49.992;14.512;2023-02-26T08:54:52;4.57;;;1.88;;
75038;SDS011;63609;49.992;14.512;2023-02-26T08:57:21;8.80;;;4.50;;
75038;SDS011;63609;49.992;14.512;2023-02-26T08:59:48;6.53;;;3.75;;
75038;SDS011;63609;49.992;14.512;2023-02-26T09:02:15;5.95;;;2.28;;
75038;SDS011;63609;49.992;14.512;2023-02-26T09:04:42;2.42;;;1.60;;
75038;SDS011;63609;49.992;14.512;2023-02-26T09:07:10;3.30;;;1.70;;
75038;SDS011;63609;49.992;14.512;2023-02-26T09:10:10;2.45;;;1.33;;
75038;SDS011;63609;49.992;14.512;2023-02-26T09:12:41;3.90;;;1.83;;
75038;SDS011;63609;49.992;14.512;2023-02-26T09:15:28;5.70;;;2.40;;
75038;SDS011;63609;49.992;14.512;2023-02-26T09:18:13;7.07;;;2.92;;
75038;SDS011;63609;49.992;14.512;2023-02-26T09:20:44;4.88;;;2.15;;
75038;SDS011;63609;49.992;14.512;2023-02-26T09:23:11;2.53;;;1.52;;
75038;SDS011;63609;49.992;14.512;2023-02-26T09:25:38;2.65;;;1.38;;
75038;SDS011;63609;49.992;14.512;2023-02-26T09:30:36;2.58;;;1.30;;
75038;SDS011;63609;49.992;14.512;2023-02-26T09:33:03;4.95;;;1.88;;
75038;SDS011;63609;49.992;14.512;2023-02-26T09:35:31;3.65;;;1.42;;
75038;SDS011;63609;49.992;14.512;2023-02-26T09:37:59;3.50;;;1.15;;
75038;SDS011;63609;49.992;14.512;2023-02-26T09:45:49;5.18;;;1.83;;
75038;SDS011;63609;49.992;14.512;2023-02-26T09:48:19;4.63;;;1.50;;
75038;SDS011;63609;49.992;14.512;2023-02-26T09:50:51;3.10;;;1.52;;
75038;SDS011;63609;49.992;14.512;2023-02-26T09:53:23;6.03;;;2.08;;
75038;SDS011;63609;49.992;14.512;2023-02-26T09:55:50;6.47;;;2.58;;
75038;SDS011;63609;49.992;14.512;2023-02-26T10:06:48;4.53;;;1.63;;
75038;SDS011;63609;49.992;14.512;2023-02-26T10:10:17;2.33;;;1.42;;
75038;SDS011;63609;49.992;14.512;2023-02-26T10:13:22;4.15;;;1.60;;
75038;SDS011;63609;49.992;14.512;2023-02-26T10:16:29;1.60;;;0.88;;
75038;SDS011;63609;49.992;14.512;2023-02-26T10:19:06;3.55;;;1.40;;
75038;SDS011;63609;49.992;14.512;2023-02-26T10:21:47;3.90;;;1.38;;
75038;SDS011;63609;49.992;14.512;2023-02-26T10:24:44;4.25;;;1.52;;
75038;SDS011;63609;49.992;14.512;2023-02-26T10:27:19;2.85;;;1.25;;
75038;SDS011;63609;49.992;14.512;2023-02-26T10:29:57;3.80;;;1.70;;
75038;SDS011;63609;49.992;14.512;2023-02-26T10:35:17;3.13;;;1.58;;
75038;SDS011;63609;49.992;14.512;2023-02-26T10:37:53;3.83;;;1.25;;
75038;SDS011;63609;49.992;14.512;2023-02-26T10:43:08;9.02;;;3.38;;
75038;SDS011;63609;49.992;14.512;2023-02-26T10:51:33;3.15;;;1.30;;
75038;SDS011;63609;49.992;14.512;2023-02-26T10:54:04;1.77;;;0.88;;
75038;SDS011;63609;49.992;14.512;2023-02-26T10:56:34;2.20;;;1.02;;
75038;SDS011;63609;49.992;14.512;2023-02-26T11:01:29;3.70;;;1.63;;
75038;SDS011;63609;49.992;14.512;2023-02-26T11:04:00;3.55;;;1.08;;
75038;SDS011;63609;49.992;14.512;2023-02-26T11:06:42;5.95;;;1.77;;
75038;SDS011;63609;49.992;14.512;2023-02-26T11:09:32;3.38;;;1.80;;
75038;SDS011;63609;49.992;14.512;2023-02-26T11:14:36;3.92;;;2.15;;
75038;SDS011;63609;49.992;14.512;2023-02-26T11:17:16;4.28;;;1.65;;
75038;SDS011;63609;49.992;14.512;2023-02-26T11:20:04;3.10;;;1.55;;
75038;SDS011;63609;49.992;14.512;2023-02-26T11:22:43;3.28;;;2.03;;
75038;SDS011;63609;49.992;14.512;2023-02-26T11:25:19;3.63;;;1.40;;
75038;SDS011;63609;49.992;14.512;2023-02-26T11:27:52;3.17;;;1.58;;
75038;SDS011;63609;49.992;14.512;2023-02-26T11:30:46;4.28;;;1.45;;
75038;SDS011;63609;49.992;14.512;2023-02-26T11:33:32;3.10;;;1.77;;
75038;SDS011;63609;49.992;14.512;2023-02-26T11:36:05;6.85;;;2.00;;
75038;SDS011;63609;49.992;14.512;2023-02-26T11:38:37;5.18;;;2.25;;
75038;SDS011;63609;49.992;14.512;2023-02-26T11:41:04;5.18;;;1.85;;
75038;SDS011;63609;49.992;14.512;2023-02-26T11:43:33;3.17;;;1.90;;
75038;SDS011;63609;49.992;14.512;2023-02-26T11:46:09;3.92;;;1.63;;
75038;SDS011;63609;49.992;14.512;2023-02-26T11:48:42;4.03;;;2.00;;
75038;SDS011;63609;49.992;14.512;2023-02-26T11:51:19;5.13;;;2.30;;
75038;SDS011;63609;49.992;14.512;2023-02-26T11:53:57;2.97;;;1.80;;
75038;SDS011;63609;49.992;14.512;2023-02-26T11:58:58;3.15;;;1.73;;
75038;SDS011;63609;49.992;14.512;2023-02-26T12:01:34;3.15;;;1.83;;
75038;SDS011;63609;49.992;14.512;2023-02-26T12:04:02;2.95;;;1.58;;
75038;SDS011;63609;49.992;14.512;2023-02-26T12:06:30;3.30;;;2.00;;
75038;SDS011;63609;49.992;14.512;2023-02-26T12:09:00;2.75;;;1.52;;
75038;SDS011;63609;49.992;14.512;2023-02-26T12:33:00;3.00;;;1.38;;
75038;SDS011;63609;49.992;14.512;2023-02-26T12:35:50;3.75;;;1.45;;
75038;SDS011;63609;49.992;14.512;2023-02-26T12:38:40;3.75;;;1.77;;
75038;SDS011;63609;49.992;14.512;2023-02-26T12:41:26;4.63;;;2.13;;
75038;SDS011;63609;49.992;14.512;2023-02-26T12:47:26;2.83;;;1.65;;
75038;SDS011;63609;49.992;14.512;2023-02-26T13:20:25;4.40;;;1.38;;
75038;SDS011;63609;49.992;14.512;2023-02-26T13:22:58;2.42;;;1.17;;
75038;SDS011;63609;49.992;14.512;2023-02-26T13:25:47;3.03;;;1.75;;
75038;SDS011;63609;49.992;14.512;2023-02-26T13:31:20;3.90;;;1.52;;
75038;SDS011;63609;49.992;14.512;2023-02-26T13:34:09;2.67;;;1.42;;
75038;SDS011;63609;49.992;14.512;2023-02-26T13:36:49;2.50;;;1.02;;
75038;SDS011;63609;49.992;14.512;2023-02-26T13:39:44;3.15;;;1.10;;
75038;SDS011;63609;49.992;14.512;2023-02-26T13:51:01;2.15;;;0.90;;
75038;SDS011;63609;49.992;14.512;2023-02-26T13:54:00;2.45;;;1.23;;
75038;SDS011;63609;49.992;14.512;2023-02-26T13:56:51;2.22;;;0.90;;
75038;SDS011;63609;49.992;14.512;2023-02-26T13:59:36;4.35;;;1.70;;
75038;SDS011;63609;49.992;14.512;2023-02-26T14:04:50;2.33;;;1.05;;
75038;SDS011;63609;49.992;14.512;2023-02-26T14:10:15;5.07;;;1.85;;
75038;SDS011;63609;49.992;14.512;2023-02-26T14:13:01;5.10;;;2.30;;
75038;SDS011;63609;49.992;14.512;2023-02-26T14:15:41;3.55;;;1.40;;
75038;SDS011;63609;49.992;14.512;2023-02-26T14:18:34;3.33;;;1.40;;
75038;SDS011;63609;49.992;14.512;2023-02-26T14:23:57;9.65;;;2.35;;
75038;SDS011;63609;49.992;14.512;2023-02-26T14:26:31;2.05;;;1.30;;
75038;SDS011;63609;49.992;14.512;2023-02-26T14:34:40;3.65;;;1.90;;
75038;SDS011;63609;49.992;14.512;2023-02-26T14:37:24;2.10;;;1.38;;
75038;SDS011;63609;49.992;14.512;2023-02-26T14:39:58;3.65;;;2.13;;
75038;SDS011;63609;49.992;14.512;2023-02-26T14:42:35;3.67;;;2.20;;
75038;SDS011;63609;49.992;14.512;2023-02-26T14:45:08;3.88;;;1.52;;
75038;SDS011;63609;49.992;14.512;2023-02-26T14:47:38;2.80;;;1.40;;
75038;SDS011;63609;49.992;14.512;2023-02-26T14:53:04;2.15;;;1.10;;
75038;SDS011;63609;49.992;14.512;2023-02-26T14:56:05;1.58;;;0.80;;
75038;SDS011;63609;49.992;14.512;2023-02-26T14:58:43;2.72;;;0.95;;
75038;SDS011;63609;49.992;14.512;2023-02-26T15:07:10;5.65;;;1.90;;
75038;SDS011;63609;49.992;14.512;2023-02-26T15:09:51;4.63;;;1.60;;
75038;SDS011;63609;49.992;14.512;2023-02-26T15:25:50;2.30;;;0.93;;
75038;SDS011;63609;49.992;14.512;2023-02-26T15:28:24;3.83;;;1.38;;
75038;SDS011;63609;49.992;14.512;2023-02-26T15:30:54;2.40;;;1.00;;
75038;SDS011;63609;49.992;14.512;2023-02-26T15:33:23;1.58;;;0.80;;
75038;SDS011;63609;49.992;14.512;2023-02-26T15:35:53;4.82;;;2.08;;
75038;SDS011;63609;49.992;14.512;2023-02-26T15:38:21;3.58;;;1.10;;
75038;SDS011;63609;49.992;14.512;2023-02-26T15:40:49;2.97;;;1.00;;
75038;SDS011;63609;49.992;14.512;2023-02-26T15:43:24;2.28;;;1.25;;
75038;SDS011;63609;49.992;14.512;2023-02-26T15:45:54;3.03;;;1.48;;
75038;SDS011;63609;49.992;14.512;2023-02-26T15:48:30;7.47;;;1.50;;
75038;SDS011;63609;49.992;14.512;2023-02-26T15:51:04;3.22;;;1.23;;
75038;SDS011;63609;49.992;14.512;2023-02-26T15:53:43;3.83;;;1.70;;
75038;SDS011;63609;49.992;14.512;2023-02-26T15:56:23;5.22;;;1.15;;
75038;SDS011;63609;49.992;14.512;2023-02-26T15:58:57;2.33;;;1.10;;
75038;SDS011;63609;49.992;14.512;2023-02-26T16:01:27;2.45;;;1.35;;
75038;SDS011;63609;49.992;14.512;2023-02-26T16:03:56;3.10;;;1.08;;
75038;SDS011;63609;49.992;14.512;2023-02-26T16:06:29;3.83;;;1.70;;
75038;SDS011;63609;49.992;14.512;2023-02-26T16:08:59;3.15;;;1.65;;
75038;SDS011;63609;49.992;14.512;2023-02-26T16:11:29;2.47;;;1.10;;
75038;SDS011;63609;49.992;14.512;2023-02-26T16:14:01;3.20;;;1.02;;
75038;SDS011;63609;49.992;14.512;2023-02-26T16:16:39;3.97;;;1.30;;
75038;SDS011;63609;49.992;14.512;2023-02-26T16:19:12;3.15;;;1.58;;
75038;SDS011;63609;49.992;14.512;2023-02-26T16:21:44;5.13;;;1.45;;
75038;SDS011;63609;49.992;14.512;2023-02-26T16:24:16;7.43;;;1.67;;
75038;SDS011;63609;49.992;14.512;2023-02-26T16:26:53;3.83;;;1.50;;
75038;SDS011;63609;49.992;14.512;2023-02-26T16:29:27;5.53;;;1.70;;
75038;SDS011;63609;49.992;14.512;2023-02-26T16:31:57;2.97;;;1.13;;
75038;SDS011;63609;49.992;14.512;2023-02-26T16:39:54;3.42;;;1.50;;
75038;SDS011;63609;49.992;14.512;2023-02-26T16:42:42;5.70;;;1.65;;
75038;SDS011;63609;49.992;14.512;2023-02-26T16:47:50;7.95;;;2.53;;
75038;SDS011;63609;49.992;14.512;2023-02-26T16:50:22;7.90;;;3.13;;
75038;SDS011;63609;49.992;14.512;2023-02-26T16:52:57;3.95;;;1.90;;
75038;SDS011;63609;49.992;14.512;2023-02-26T16:55:26;3.85;;;1.70;;
75038;SDS011;63609;49.992;14.512;2023-02-26T16:57:55;4.03;;;1.80;;
75038;SDS011;63609;49.992;14.512;2023-02-26T17:00:23;4.72;;;2.45;;
75038;SDS011;63609;49.992;14.512;2023-02-26T17:03:17;3.63;;;1.88;;
75038;SDS011;63609;49.992;14.512;2023-02-26T17:08:35;5.10;;;1.63;;
75038;SDS011;63609;49.992;14.512;2023-02-26T17:11:21;5.43;;;1.60;;
75038;SDS011;63609;49.992;14.512;2023-02-26T17:14:15;3.40;;;1.20;;
75038;SDS011;63609;49.992;14.512;2023-02-26T17:16:48;4.03;;;1.20;;
75038;SDS011;63609;49.992;14.512;2023-02-26T17:19:21;4.00;;;1.08;;
75038;SDS011;63609;49.992;14.512;2023-02-26T17:21:57;6.38;;;1.60;;
75038;SDS011;63609;49.992;14.512;2023-02-26T17:24:28;3.42;;;1.77;;
75038;SDS011;63609;49.992;14.512;2023-02-26T17:26:58;4.18;;;1.60;;
75038;SDS011;63609;49.992;14.512;2023-02-26T17:29:30;5.93;;;1.52;;
75038;SDS011;63609;49.992;14.512;2023-02-26T17:31:59;5.43;;;2.15;;
75038;SDS011;63609;49.992;14.512;2023-02-26T17:34:28;4.30;;;1.50;;
75038;SDS011;63609;49.992;14.512;2023-02-26T17:36:55;7.45;;;1.88;;
75038;SDS011;63609;49.992;14.512;2023-02-26T17:39:25;4.03;;;1.70;;
75038;SDS011;63609;49.992;14.512;2023-02-26T17:41:52;7.00;;;1.90;;
75038;SDS011;63609;49.992;14.512;2023-02-26T17:44:19;4.55;;;1.70;;
75038;SDS011;63609;49.992;14.512;2023-02-26T17:46:46;6.93;;;2.00;;
75038;SDS011;63609;49.992;14.512;2023-02-26T17:51:39;3.85;;;1.95;;
75038;SDS011;63609;49.992;14.512;2023-02-26T17:54:07;4.05;;;1.80;;
75038;SDS011;63609;49.992;14.512;2023-02-26T17:56:35;3.05;;;1.70;;
75038;SDS011;63609;49.992;14.512;2023-02-26T17:59:03;4.82;;;2.20;;
75038;SDS011;63609;49.992;14.512;2023-02-26T18:01:33;3.75;;;1.40;;
75038;SDS011;63609;49.992;14.512;2023-02-26T18:04:01;1.98;;;1.27;;
75038;SDS011;63609;49.992;14.512;2023-02-26T18:06:33;4.70;;;2.17;;
75038;SDS011;63609;49.992;14.512;2023-02-26T18:09:03;5.85;;;1.60;;
75038;SDS011;63609;49.992;14.512;2023-02-26T18:11:32;4.75;;;2.13;;
75038;SDS011;63609;49.992;14.512;2023-02-26T18:13:59;4.78;;;1.58;;
75038;SDS011;63609;49.992;14.512;2023-02-26T18:16:31;3.20;;;1.25;;
75038;SDS011;63609;49.992;14.512;2023-02-26T18:19:05;10.10;;;3.70;;
75038;SDS011;63609;49.992;14.512;2023-02-26T18:21:33;4.63;;;1.98;;
75038;SDS011;63609;49.992;14.512;2023-02-26T18:24:00;5.22;;;1.70;;
75038;SDS011;63609;49.992;14.512;2023-02-26T18:29:20;4.53;;;1.90;;
75038;SDS011;63609;49.992;14.512;2023-02-26T18:31:48;6.15;;;3.00;;
75038;SDS011;63609;49.992;14.512;2023-02-26T18:34:15;3.80;;;1.70;;
75038;SDS011;63609;49.992;14.512;2023-02-26T18:36:43;5.05;;;2.72;;
75038;SDS011;63609;49.992;14.512;2023-02-26T18:39:13;3.63;;;1.40;;
75038;SDS011;63609;49.992;14.512;2023-02-26T18:41:41;6.95;;;1.95;;
75038;SDS011;63609;49.992;14.512;2023-02-26T18:44:08;3.85;;;1.75;;
75038;SDS011;63609;49.992;14.512;2023-02-26T18:46:37;4.05;;;2.50;;
75038;SDS011;63609;49.992;14.512;2023-02-26T18:49:11;3.92;;;1.73;;
75038;SDS011;63609;49.992;14.512;2023-02-26T18:51:43;3.10;;;1.30;;
75038;SDS011;63609;49.992;14.512;2023-02-26T18:54:10;3.90;;;1.80;;
75038;SDS011;63609;49.992;14.512;2023-02-26T18:56:38;3.88;;;1.90;;
75038;SDS011;63609;49.992;14.512;2023-02-26T18:59:05;5.05;;;1.77;;
75038;SDS011;63609;49.992;14.512;2023-02-26T19:01:32;5.30;;;2.63;;
75038;SDS011;63609;49.992;14.512;2023-02-26T19:04:01;8.05;;;3.13;;
75038;SDS011;63609;49.992;14.512;2023-02-26T19:06:29;11.45;;;3.80;;
75038;SDS011;63609;49.992;14.512;2023-02-26T19:08:57;7.32;;;3.35;;
75038;SDS011;63609;49.992;14.512;2023-02-26T19:11:28;4.82;;;1.88;;
75038;SDS011;63609;49.992;14.512;2023-02-26T19:13:56;5.43;;;2.20;;
75038;SDS011;63609;49.992;14.512;2023-02-26T19:16:23;7.43;;;3.00;;
75038;SDS011;63609;49.992;14.512;2023-02-26T19:21:21;5.15;;;2.20;;
75038;SDS011;63609;49.992;14.512;2023-02-26T19:23:49;4.65;;;1.80;;
75038;SDS011;63609;49.992;14.512;2023-02-26T19:26:18;3.20;;;2.15;;
75038;SDS011;63609;49.992;14.512;2023-02-26T19:28:53;4.22;;;2.05;;
75038;SDS011;63609;49.992;14.512;2023-02-26T19:31:22;4.68;;;1.98;;
75038;SDS011;63609;49.992;14.512;2023-02-26T19:33:49;9.27;;;2.33;;